createdAt,value
2022-08-24T00:00:10.984Z,21.57
2022-08-24T00:05:14.995Z,21.50
2022-08-24T00:10:19.069Z,21.36
2022-08-24T00:15:23.388Z,21.24
2022-08-24T00:20:26.572Z,21.32
2022-08-24T00:25:29.384Z,21.32
2022-08-24T00:30:34.780Z,21.31
2022-08-24T00:35:37.889Z,21.23
2022-08-24T00:40:43.437Z,21.18
2022-08-24T00:46:04.487Z,21.19
2022-08-24T00:51:12.846Z,21.11
2022-08-24T00:56:22.022Z,20.97
2022-08-24T01:01:28.052Z,20.95
2022-08-24T01:06:33.361Z,20.87
2022-08-24T01:11:36.673Z,20.83
2022-08-24T01:16:59.142Z,20.79
2022-08-24T01:22:16.974Z,20.72
2022-08-24T01:27:24.885Z,20.61
2022-08-24T01:32:31.022Z,20.55
2022-08-24T01:37:34.509Z,20.51
2022-08-24T01:42:39.064Z,20.40
2022-08-24T01:47:41.936Z,20.41
2022-08-24T01:53:04.311Z,20.39
2022-08-24T01:58:09.095Z,20.30
2022-08-24T02:03:12.212Z,20.16
2022-08-24T02:08:15.941Z,20.05
2022-08-24T02:13:20.205Z,20.08
2022-08-24T02:18:23.952Z,20.03
2022-08-24T02:23:28.728Z,20.00
2022-08-24T02:28:33.001Z,19.97
2022-08-24T02:33:36.828Z,19.87
2022-08-24T02:38:40.341Z,19.86
2022-08-24T02:43:50.912Z,19.86
2022-08-24T02:49:08.318Z,19.80
2022-08-24T02:54:18.389Z,19.72
2022-08-24T02:59:24.710Z,19.72
2022-08-24T03:04:29.208Z,19.69
2022-08-24T03:09:32.318Z,19.64
2022-08-24T03:14:36.716Z,19.66
2022-08-24T03:19:40.161Z,19.71
2022-08-24T03:24:43.532Z,19.70
2022-08-24T03:29:51.333Z,19.66
2022-08-24T03:34:54.485Z,19.57
2022-08-24T03:39:57.418Z,19.64
2022-08-24T03:45:02.636Z,19.67
2022-08-24T03:50:07.087Z,19.57
2022-08-24T03:55:12.000Z,19.44
2022-08-24T04:00:17.454Z,19.51
2022-08-24T04:05:29.302Z,19.47
2022-08-24T04:10:38.910Z,19.40
2022-08-24T04:15:44.309Z,19.38
2022-08-24T04:20:47.376Z,19.34
2022-08-24T04:25:53.471Z,19.24
2022-08-24T04:30:57.917Z,19.31
2022-08-24T04:36:08.602Z,19.38
2022-08-24T04:41:16.130Z,19.30
2022-08-24T04:46:31.642Z,19.34
2022-08-24T04:51:36.502Z,19.30
2022-08-24T04:56:40.299Z,19.31
2022-08-24T05:01:44.526Z,19.17
2022-08-24T05:06:47.443Z,19.22
2022-08-24T05:11:57.385Z,19.24
2022-08-24T05:17:04.939Z,19.38
2022-08-24T05:22:12.080Z,19.33
2022-08-24T05:27:20.377Z,19.47
2022-08-24T05:32:28.564Z,19.51
2022-08-24T05:37:31.559Z,19.61
2022-08-24T05:42:55.348Z,19.79
2022-08-24T05:48:00.290Z,19.74
2022-08-24T05:53:38.748Z,19.97
2022-08-24T05:58:43.204Z,20.13
2022-08-24T06:03:49.923Z,20.13
2022-08-24T06:08:55.824Z,20.44
2022-08-24T06:14:01.780Z,20.49
2022-08-24T06:19:10.359Z,20.64
2022-08-24T06:24:15.641Z,20.69
2022-08-24T06:29:21.730Z,20.82
2022-08-24T06:34:30.653Z,21.18
2022-08-24T06:39:33.808Z,21.05
2022-08-24T06:44:38.860Z,21.38
2022-08-24T06:49:54.888Z,21.38
2022-08-24T06:54:57.828Z,22.08
2022-08-24T07:00:00.871Z,22.31
2022-08-24T07:05:06.977Z,22.39
2022-08-24T07:10:39.409Z,22.09
2022-08-24T07:15:42.758Z,22.84
2022-08-24T07:20:50.403Z,23.45
2022-08-24T07:26:20.977Z,23.69
2022-08-24T07:31:26.723Z,24.07
2022-08-24T07:36:44.458Z,24.29
2022-08-24T07:47:36.607Z,24.90
2022-08-24T07:52:36.296Z,25.08
2022-08-24T07:57:39.513Z,25.36
2022-08-24T08:02:46.582Z,25.58
2022-08-24T08:07:53.490Z,26.05
2022-08-24T08:12:56.818Z,26.33
2022-08-24T08:18:00.114Z,26.64
2022-08-24T08:23:21.894Z,26.78
2022-08-24T08:28:50.905Z,26.88
2022-08-24T08:33:54.810Z,27.27
2022-08-24T08:38:59.905Z,27.84
2022-08-24T08:44:07.575Z,29.35
2022-08-24T08:49:31.476Z,29.66
2022-08-24T08:54:45.869Z,29.00
2022-08-24T09:00:07.110Z,28.85
2022-08-24T09:05:44.701Z,28.68
2022-08-24T09:10:58.521Z,28.87
2022-08-24T09:16:25.772Z,28.82
2022-08-24T09:21:45.636Z,29.56
2022-08-24T09:26:59.541Z,30.31
2022-08-24T09:32:23.701Z,30.49
2022-08-24T09:37:33.888Z,30.32
2022-08-24T09:43:08.525Z,30.77
2022-08-24T09:49:00.067Z,31.68
2022-08-24T09:54:53.506Z,31.96
2022-08-24T10:00:12.178Z,32.40
2022-08-24T10:05:24.847Z,32.96
2022-08-24T10:10:34.996Z,33.11
2022-08-24T10:15:49.098Z,33.88
2022-08-24T10:21:06.268Z,34.47
2022-08-24T10:26:21.044Z,34.63
2022-08-24T10:31:33.827Z,34.49
2022-08-24T10:37:15.612Z,34.08
2022-08-24T10:43:11.688Z,33.96
2022-08-24T10:49:02.221Z,34.04
2022-08-24T10:54:06.352Z,34.45
2022-08-24T10:59:24.836Z,34.60
2022-08-24T11:04:31.140Z,35.09
2022-08-24T11:09:45.616Z,36.83
2022-08-24T11:14:49.491Z,38.22
2022-08-24T11:19:53.744Z,38.52
2022-08-24T11:25:00.172Z,38.60
2022-08-24T11:30:10.848Z,38.01
2022-08-24T11:35:23.594Z,38.38
2022-08-24T11:40:31.449Z,38.88
2022-08-24T11:45:41.988Z,37.99
2022-08-24T11:50:53.759Z,37.53
2022-08-24T11:56:06.065Z,38.88
2022-08-24T12:01:18.913Z,39.64
2022-08-24T12:06:34.461Z,39.50
2022-08-24T12:11:44.926Z,38.95
2022-08-24T12:16:55.488Z,38.72
2022-08-24T12:22:03.189Z,39.15
2022-08-24T12:27:11.082Z,38.77
2022-08-24T12:32:20.119Z,37.26
2022-08-24T12:37:31.408Z,39.48
2022-08-24T12:42:51.270Z,40.20
2022-08-24T12:48:02.017Z,39.71
2022-08-24T12:53:30.264Z,39.18
2022-08-24T12:58:54.336Z,39.45
2022-08-24T13:04:13.449Z,38.03
2022-08-24T13:09:30.910Z,38.21
2022-08-24T13:14:35.451Z,38.07
2022-08-24T13:19:42.169Z,37.86
2022-08-24T13:24:48.118Z,38.03
2022-08-24T13:30:01.536Z,38.63
2022-08-24T13:35:34.928Z,39.20
2022-08-24T13:40:51.860Z,39.24
2022-08-24T13:46:00.949Z,38.24
2022-08-24T13:51:34.248Z,38.04
2022-08-24T13:57:05.412Z,38.87
2022-08-24T14:02:25.830Z,39.63
2022-08-24T14:07:32.592Z,38.66
2022-08-24T14:12:50.044Z,39.26
2022-08-24T14:18:08.064Z,39.95
2022-08-24T14:23:28.078Z,38.00
2022-08-24T14:28:41.732Z,35.26
2022-08-24T14:33:54.932Z,34.23
2022-08-24T14:39:05.064Z,33.78
2022-08-24T14:44:37.888Z,33.47
2022-08-24T14:49:46.695Z,33.25
2022-08-24T14:55:04.373Z,33.06
2022-08-24T15:00:14.118Z,32.92
2022-08-24T15:05:25.001Z,33.88
2022-08-24T15:10:36.989Z,34.17
2022-08-24T15:15:47.025Z,34.39
2022-08-24T15:21:03.945Z,33.42
2022-08-24T15:26:15.209Z,34.95
2022-08-24T15:31:24.563Z,35.21
2022-08-24T15:36:30.018Z,33.83
2022-08-24T15:41:36.236Z,33.77
2022-08-24T15:46:44.578Z,33.27
2022-08-24T15:51:51.825Z,33.33
2022-08-24T15:56:58.456Z,32.83
2022-08-24T16:02:30.414Z,34.26
2022-08-24T16:07:55.748Z,34.92
2022-08-24T16:13:08.753Z,34.87
2022-08-24T16:18:13.767Z,34.99
2022-08-24T16:23:25.598Z,35.67
2022-08-24T16:28:37.226Z,34.96
2022-08-24T16:33:45.443Z,34.31
2022-08-24T16:38:51.033Z,33.93
2022-08-24T16:43:54.046Z,33.93
2022-08-24T16:48:58.993Z,33.06
2022-08-24T16:54:01.781Z,32.00
2022-08-24T16:59:06.348Z,31.59
2022-08-24T17:04:10.527Z,32.24
2022-08-24T17:09:13.420Z,32.35
2022-08-24T17:14:17.260Z,32.59
2022-08-24T17:19:21.672Z,32.58
2022-08-24T17:24:25.225Z,32.29
2022-08-24T17:29:28.368Z,32.28
2022-08-24T17:34:33.260Z,31.71
2022-08-24T17:39:36.685Z,31.32
2022-08-24T17:44:39.653Z,31.03
2022-08-24T17:49:44.225Z,30.42
2022-08-24T17:54:47.043Z,30.00
2022-08-24T17:59:50.811Z,29.53
2022-08-24T18:04:55.019Z,29.40
2022-08-24T18:10:00.688Z,29.17
2022-08-24T18:15:03.633Z,29.13
2022-08-24T18:20:10.328Z,28.91
2022-08-24T18:25:14.708Z,28.76
2022-08-24T18:30:22.727Z,28.63
2022-08-24T18:35:30.713Z,28.43
2022-08-24T18:40:33.782Z,28.20
2022-08-24T18:45:37.320Z,28.11
2022-08-24T18:50:42.996Z,28.03
2022-08-24T18:55:47.221Z,27.92
2022-08-24T19:00:51.545Z,27.75
2022-08-24T19:05:56.477Z,27.66
2022-08-24T19:10:59.885Z,27.49
2022-08-24T19:16:03.003Z,27.35
2022-08-24T19:21:08.035Z,27.18
2022-08-24T19:26:10.903Z,27.01
2022-08-24T19:31:14.935Z,26.82
2022-08-24T19:36:19.519Z,26.70
2022-08-24T19:41:22.884Z,26.57
2022-08-24T19:46:38.656Z,26.47
2022-08-24T19:51:42.900Z,26.35
2022-08-24T19:56:46.691Z,26.22
2022-08-24T20:01:49.612Z,26.07
2022-08-24T20:06:54.365Z,25.93
2022-08-24T20:11:57.141Z,25.82
2022-08-24T20:17:00.216Z,25.78
2022-08-24T20:22:13.039Z,25.68
2022-08-24T20:27:20.676Z,25.56
2022-08-24T20:32:23.906Z,25.47
2022-08-24T20:37:31.165Z,25.34
2022-08-24T20:42:34.003Z,25.23
2022-08-24T20:47:41.063Z,25.10
2022-08-24T20:52:45.279Z,25.01
2022-08-24T20:57:50.721Z,24.87
2022-08-24T21:02:53.683Z,24.76
2022-08-24T21:07:58.431Z,24.69
2022-08-24T21:13:02.609Z,24.65
2022-08-24T21:18:05.949Z,24.58
2022-08-24T21:23:10.957Z,24.49
2022-08-24T21:28:16.408Z,24.45
2022-08-24T21:33:37.013Z,24.46
2022-08-24T21:38:41.238Z,24.43
2022-08-24T21:43:48.396Z,24.37
2022-08-24T21:48:51.305Z,24.25
2022-08-24T21:53:59.393Z,24.16
2022-08-24T21:59:02.875Z,24.20
2022-08-24T22:04:06.127Z,24.11
2022-08-24T22:09:10.394Z,24.07
2022-08-24T22:14:15.197Z,23.90
2022-08-24T22:19:18.187Z,23.82
2022-08-24T22:24:22.404Z,23.71
2022-08-24T22:29:25.644Z,23.62
2022-08-24T22:34:28.573Z,23.60
2022-08-24T22:39:33.264Z,23.55
2022-08-24T22:44:36.418Z,23.44
2022-08-24T22:49:43.875Z,23.42
2022-08-24T22:54:48.096Z,23.35
2022-08-24T22:59:50.965Z,23.34
2022-08-24T23:04:54.546Z,23.31
2022-08-24T23:09:58.794Z,23.31
2022-08-24T23:15:01.899Z,23.24
2022-08-24T23:20:07.845Z,23.15
2022-08-24T23:25:14.302Z,22.98
2022-08-24T23:30:17.252Z,22.85
2022-08-24T23:35:20.099Z,22.75
2022-08-24T23:40:24.391Z,22.70
2022-08-24T23:45:28.545Z,22.66
2022-08-24T23:50:34.337Z,22.66
2022-08-24T23:55:38.533Z,22.61
